createdAt,value
2023-04-12T00:00:42.806Z,18.20
2023-04-12T00:03:10.946Z,20.80
2023-04-12T00:05:39.019Z,23.10
2023-04-12T00:08:10.749Z,23.40
2023-04-12T00:10:38.984Z,22.17
2023-04-12T00:13:07.926Z,26.80
2023-04-12T00:15:37.337Z,25.90
2023-04-12T00:18:05.643Z,24.03
2023-04-12T00:20:36.933Z,24.27
2023-04-12T00:23:04.946Z,27.13
2023-04-12T00:25:32.967Z,26.87
2023-04-12T00:28:00.983Z,27.53
2023-04-12T00:30:29.255Z,26.37
2023-04-12T00:32:59.205Z,30.67
2023-04-12T00:35:27.300Z,25.30
2023-04-12T00:37:56.474Z,26.80
2023-04-12T00:40:24.574Z,26.03
2023-04-12T00:42:52.634Z,25.60
2023-04-12T00:45:21.400Z,27.13
2023-04-12T00:47:49.655Z,24.43
2023-04-12T00:50:19.143Z,26.47
2023-04-12T00:52:47.579Z,26.87
2023-04-12T00:55:16.000Z,24.50
2023-04-12T00:57:44.053Z,25.57
2023-04-12T01:00:13.500Z,25.47
2023-04-12T01:02:47.488Z,25.90
2023-04-12T01:05:22.151Z,23.43
2023-04-12T01:07:56.955Z,22.57
2023-04-12T01:10:34.808Z,24.13
2023-04-12T01:13:12.517Z,24.47
2023-04-12T01:15:49.286Z,26.00
2023-04-12T01:18:23.598Z,23.67
2023-04-12T01:21:02.450Z,23.53
2023-04-12T01:23:51.905Z,23.10
2023-04-12T01:26:34.242Z,25.13
2023-04-12T01:29:10.974Z,24.87
2023-04-12T01:31:42.695Z,27.07
2023-04-12T01:34:12.966Z,24.27
2023-04-12T01:36:46.074Z,25.27
2023-04-12T01:39:16.471Z,22.87
2023-04-12T01:41:45.578Z,23.53
2023-04-12T01:44:18.946Z,21.80
2023-04-12T01:46:48.141Z,24.17
2023-04-12T01:49:18.735Z,21.87
2023-04-12T01:51:53.599Z,21.80
2023-04-12T01:54:25.828Z,20.67
2023-04-12T01:56:58.833Z,19.57
2023-04-12T01:59:33.558Z,18.27
2023-04-12T02:02:02.322Z,14.70
2023-04-12T02:04:31.357Z,13.63
2023-04-12T02:06:59.443Z,12.30
2023-04-12T02:09:27.442Z,10.77
2023-04-12T02:11:56.414Z,10.40
2023-04-12T02:14:24.448Z,9.77
2023-04-12T02:16:54.832Z,8.50
2023-04-12T02:19:23.126Z,8.00
2023-04-12T02:21:52.178Z,8.67
2023-04-12T02:24:20.529Z,7.47
2023-04-12T02:26:49.710Z,7.23
2023-04-12T02:29:17.963Z,7.80
2023-04-12T02:31:46.420Z,6.67
2023-04-12T02:34:17.919Z,6.33
2023-04-12T02:36:48.281Z,6.73
2023-04-12T02:39:18.604Z,7.40
2023-04-12T02:41:47.033Z,6.13
2023-04-12T02:44:15.069Z,6.40
2023-04-12T02:46:43.047Z,6.63
2023-04-12T02:49:11.468Z,6.03
2023-04-12T02:51:41.702Z,5.60
2023-04-12T02:54:09.701Z,7.03
2023-04-12T02:56:37.686Z,5.80
2023-04-12T02:59:06.815Z,5.07
2023-04-12T03:01:35.040Z,4.70
2023-04-12T03:04:05.861Z,4.83
2023-04-12T03:06:36.824Z,4.67
2023-04-12T03:09:06.735Z,4.70
2023-04-12T03:11:34.723Z,4.33
2023-04-12T03:14:02.787Z,4.73
2023-04-12T03:16:30.799Z,4.90
2023-04-12T03:18:59.944Z,5.30
2023-04-12T03:21:28.272Z,5.87
2023-04-12T03:23:56.542Z,5.30
2023-04-12T03:26:26.516Z,5.10
2023-04-12T03:28:59.787Z,4.70
2023-04-12T03:31:28.186Z,5.60
2023-04-12T03:33:56.794Z,5.10
2023-04-12T03:36:27.005Z,4.97
2023-04-12T03:38:55.017Z,7.13
2023-04-12T03:41:24.908Z,7.77
2023-04-12T03:43:52.952Z,9.00
2023-04-12T03:46:22.319Z,10.53
2023-04-12T03:48:51.978Z,10.57
2023-04-12T03:51:22.278Z,14.03
2023-04-12T03:53:50.468Z,13.63
2023-04-12T03:56:20.046Z,14.83
2023-04-12T03:58:49.467Z,14.33
2023-04-12T04:01:17.957Z,15.40
2023-04-12T04:03:46.690Z,14.90
2023-04-12T04:06:14.939Z,16.17
2023-04-12T04:08:44.632Z,17.37
2023-04-12T04:11:13.701Z,16.20
2023-04-12T04:13:41.715Z,17.43
2023-04-12T04:16:14.020Z,17.13
2023-04-12T04:18:42.079Z,17.17
2023-04-12T04:21:10.100Z,14.87
2023-04-12T04:23:39.540Z,17.87
2023-04-12T04:26:10.061Z,15.57
2023-04-12T04:28:38.414Z,16.07
2023-04-12T04:31:07.348Z,17.13
2023-04-12T04:33:37.638Z,15.73
2023-04-12T04:36:07.431Z,15.53
2023-04-12T04:38:35.492Z,18.13
2023-04-12T04:41:04.507Z,18.53
2023-04-12T04:43:34.079Z,17.47
2023-04-12T04:46:02.520Z,18.53
2023-04-12T04:48:31.039Z,17.47
2023-04-12T04:51:03.119Z,17.20
2023-04-12T04:53:32.533Z,17.00
2023-04-12T04:56:01.083Z,18.83
2023-04-12T04:58:29.362Z,18.10
2023-04-12T05:00:59.800Z,16.90
2023-04-12T05:03:30.602Z,17.03
2023-04-12T05:06:00.665Z,16.87
2023-04-12T05:08:29.156Z,16.00
2023-04-12T05:10:57.641Z,16.00
2023-04-12T05:13:25.871Z,15.80
2023-04-12T05:15:53.943Z,15.17
2023-04-12T05:18:22.123Z,15.83
2023-04-12T05:20:50.408Z,15.33
2023-04-12T05:23:19.799Z,15.27
2023-04-12T05:25:50.141Z,16.87
2023-04-12T05:28:18.421Z,16.83
2023-04-12T05:30:47.014Z,17.17
2023-04-12T05:33:15.783Z,18.60
2023-04-12T05:35:43.836Z,19.00
2023-04-12T05:38:11.943Z,16.47
2023-04-12T05:40:42.083Z,17.40
2023-04-12T05:43:12.817Z,19.10
2023-04-12T05:45:41.153Z,15.90
2023-04-12T05:48:09.290Z,15.17
2023-04-12T05:50:38.138Z,16.07
2023-04-12T05:53:06.206Z,16.40
2023-04-12T05:55:38.103Z,15.97
2023-04-12T05:58:07.939Z,17.77
2023-04-12T06:00:36.508Z,16.43
2023-04-12T06:03:04.832Z,16.77
2023-04-12T06:05:34.816Z,17.73
2023-04-12T06:08:03.002Z,17.37
2023-04-12T06:10:31.243Z,17.60
2023-04-12T06:12:59.398Z,18.63
2023-04-12T06:15:31.913Z,18.40
2023-04-12T06:18:00.478Z,21.67
2023-04-12T06:20:28.715Z,19.10
2023-04-12T06:22:56.739Z,18.00
2023-04-12T06:25:24.897Z,19.67
2023-04-12T06:27:55.965Z,19.20
2023-04-12T06:30:24.002Z,19.37
2023-04-12T06:32:53.997Z,19.77
2023-04-12T06:35:23.057Z,18.33
2023-04-12T06:37:51.099Z,19.70
2023-04-12T06:40:19.701Z,21.43
2023-04-12T06:42:47.753Z,22.07
2023-04-12T06:45:15.771Z,23.07
2023-04-12T06:47:43.764Z,24.60
2023-04-12T06:50:13.367Z,19.17
2023-04-12T06:52:42.781Z,20.77
2023-04-12T06:55:11.095Z,20.33
2023-04-12T06:57:39.098Z,20.67
2023-04-12T07:00:08.573Z,22.97
2023-04-12T07:02:36.808Z,22.73
2023-04-12T07:05:05.198Z,24.20
2023-04-12T07:07:34.915Z,21.90
2023-04-12T07:10:04.417Z,22.53
2023-04-12T07:12:32.587Z,25.23
2023-04-12T07:15:00.799Z,21.47
2023-04-12T07:17:28.895Z,20.67
2023-04-12T07:19:57.257Z,19.50
2023-04-12T07:22:25.554Z,19.23
2023-04-12T07:24:55.140Z,20.00
2023-04-12T07:27:23.749Z,19.23
2023-04-12T07:29:53.171Z,18.23
2023-04-12T07:32:22.396Z,22.60
2023-04-12T07:34:50.609Z,20.80
2023-04-12T07:37:18.936Z,27.50
2023-04-12T07:39:47.024Z,24.40
2023-04-12T07:42:16.514Z,22.50
2023-04-12T07:44:44.522Z,23.23
2023-04-12T07:47:15.187Z,20.93
2023-04-12T07:49:43.299Z,18.27
2023-04-12T07:52:11.411Z,19.37
2023-04-12T07:54:39.597Z,19.67
2023-04-12T07:57:08.827Z,18.50
2023-04-12T07:59:38.226Z,20.40
2023-04-12T08:02:06.696Z,19.53
2023-04-12T08:04:34.867Z,20.33
2023-04-12T08:07:02.906Z,20.20
2023-04-12T08:09:31.205Z,19.87
2023-04-12T08:11:59.731Z,23.37
2023-04-12T08:14:27.750Z,21.80
2023-04-12T08:16:57.114Z,19.40
2023-04-12T08:19:25.663Z,21.10
2023-04-12T08:21:54.219Z,19.43
2023-04-12T08:24:22.240Z,18.60
2023-04-12T08:26:51.290Z,18.20
2023-04-12T08:29:20.353Z,16.77
2023-04-12T08:31:48.480Z,16.70
2023-04-12T08:34:18.031Z,16.60
2023-04-12T08:36:47.335Z,16.27
2023-04-12T08:39:15.473Z,16.73
2023-04-12T08:41:44.648Z,15.37
2023-04-12T08:44:14.766Z,15.70
2023-04-12T08:46:45.034Z,15.37
2023-04-12T08:49:13.303Z,18.13
2023-04-12T08:51:44.791Z,16.33
2023-04-12T08:54:12.816Z,15.03
2023-04-12T08:56:45.963Z,16.87
2023-04-12T08:59:16.131Z,13.37
2023-04-12T09:01:44.489Z,12.73
2023-04-12T09:04:12.681Z,16.37
2023-04-12T09:06:43.097Z,14.17
2023-04-12T09:09:11.964Z,11.83
2023-04-12T09:11:41.923Z,12.73
2023-04-12T09:14:23.823Z,12.53
2023-04-12T09:16:52.507Z,13.13
2023-04-12T09:19:33.829Z,10.13
2023-04-12T09:22:05.718Z,9.43
2023-04-12T09:24:48.558Z,11.23
2023-04-12T09:27:16.676Z,10.63
2023-04-12T09:29:45.582Z,12.50
2023-04-12T09:32:15.863Z,13.00
2023-04-12T09:34:57.526Z,10.70
2023-04-12T09:37:26.972Z,12.17
2023-04-12T09:40:01.984Z,13.23
2023-04-12T09:42:34.047Z,9.57
2023-04-12T09:45:20.220Z,7.90
2023-04-12T09:47:48.477Z,8.03
2023-04-12T09:50:22.745Z,8.17
2023-04-12T09:52:53.689Z,8.23
2023-04-12T09:55:26.515Z,8.90
2023-04-12T09:57:56.279Z,9.60
2023-04-12T10:00:26.948Z,10.57
2023-04-12T10:02:57.819Z,9.70
2023-04-12T10:05:27.961Z,9.67
2023-04-12T10:07:58.359Z,9.47
2023-04-12T10:10:26.701Z,8.03
2023-04-12T10:12:54.899Z,7.47
2023-04-12T10:15:26.002Z,7.80
2023-04-12T10:17:55.302Z,6.20
2023-04-12T10:20:28.219Z,6.53
2023-04-12T10:22:59.980Z,6.13
2023-04-12T10:25:30.793Z,8.33
2023-04-12T10:28:14.027Z,5.70
2023-04-12T10:30:42.375Z,6.47
2023-04-12T10:33:15.033Z,6.60
2023-04-12T10:35:59.482Z,8.23
2023-04-12T10:38:35.232Z,6.47
2023-04-12T10:41:18.242Z,7.87
2023-04-12T10:43:46.993Z,6.20
2023-04-12T10:46:52.106Z,5.50
2023-04-12T10:49:20.685Z,6.47
2023-04-12T10:52:17.466Z,4.93
2023-04-12T10:54:47.586Z,7.83
2023-04-12T10:57:49.415Z,7.77
2023-04-12T11:00:18.283Z,6.20
2023-04-12T11:03:07.556Z,6.77
2023-04-12T11:05:58.854Z,5.40
2023-04-12T11:08:28.786Z,5.00
2023-04-12T11:11:06.203Z,6.87
2023-04-12T11:13:36.992Z,5.67
2023-04-12T11:16:06.290Z,7.77
2023-04-12T11:18:35.709Z,6.83
2023-04-12T11:21:04.783Z,5.50
2023-04-12T11:23:36.332Z,5.60
2023-04-12T11:26:06.490Z,4.20
2023-04-12T11:28:37.604Z,4.70
2023-04-12T11:31:07.171Z,5.77
2023-04-12T11:33:37.304Z,5.83
2023-04-12T11:36:07.298Z,5.07
2023-04-12T11:38:37.877Z,4.80
2023-04-12T11:41:09.396Z,4.03
2023-04-12T11:43:40.508Z,4.23
2023-04-12T11:46:08.878Z,5.73
2023-04-12T11:48:38.580Z,3.87
2023-04-12T11:51:20.713Z,5.47
2023-04-12T11:53:54.429Z,6.57
2023-04-12T11:56:27.294Z,4.63
2023-04-12T11:58:55.419Z,4.77
2023-04-12T12:01:24.574Z,3.87
2023-04-12T12:03:53.544Z,4.60
2023-04-12T12:06:22.798Z,4.77
2023-04-12T12:08:51.930Z,4.73
2023-04-12T12:11:21.517Z,3.93
2023-04-12T12:13:52.846Z,5.07
2023-04-12T12:16:27.929Z,5.03
2023-04-12T12:18:56.912Z,5.03
2023-04-12T12:21:25.233Z,5.43
2023-04-12T12:23:53.437Z,5.20
2023-04-12T12:26:22.817Z,5.00
2023-04-12T12:28:55.732Z,5.90
2023-04-12T12:31:27.957Z,3.90
2023-04-12T12:33:57.895Z,5.43
2023-04-12T12:36:32.759Z,5.50
2023-04-12T12:39:06.927Z,5.43
2023-04-12T12:41:36.779Z,4.40
2023-04-12T12:44:07.858Z,4.30
2023-04-12T12:46:52.098Z,5.57
2023-04-12T12:49:23.538Z,3.73
2023-04-12T12:51:52.644Z,6.07
2023-04-12T12:54:38.758Z,4.27
2023-04-12T12:57:09.212Z,4.77
2023-04-12T12:59:38.690Z,5.00
2023-04-12T13:02:07.486Z,5.47
2023-04-12T13:04:36.041Z,5.23
2023-04-12T13:07:04.201Z,5.70
2023-04-12T13:09:33.502Z,4.13
2023-04-12T13:12:03.004Z,4.33
2023-04-12T13:14:31.269Z,3.43
2023-04-12T13:17:00.763Z,4.83
2023-04-12T13:19:28.882Z,5.47
2023-04-12T13:21:57.479Z,7.40
2023-04-12T13:24:25.758Z,3.43
2023-04-12T13:26:54.449Z,3.60
2023-04-12T13:29:22.608Z,4.27
2023-04-12T13:31:50.829Z,5.17
2023-04-12T13:34:20.297Z,5.80
2023-04-12T13:36:48.774Z,3.20
2023-04-12T13:39:17.093Z,4.17
2023-04-12T13:41:45.509Z,3.57
2023-04-12T13:44:13.624Z,5.83
2023-04-12T13:46:41.936Z,3.77
2023-04-12T13:49:10.170Z,3.53
2023-04-12T13:51:39.726Z,3.30
2023-04-12T13:54:07.882Z,3.90
2023-04-12T13:56:36.007Z,4.33
2023-04-12T13:59:04.713Z,3.40
2023-04-12T14:01:32.874Z,2.80
2023-04-12T14:04:03.188Z,3.00
2023-04-12T14:06:31.922Z,3.40
2023-04-12T14:09:01.409Z,3.40
2023-04-12T14:11:29.957Z,3.23
2023-04-12T14:13:58.115Z,6.87
2023-04-12T14:16:26.322Z,5.03
2023-04-12T14:18:57.196Z,3.40
2023-04-12T14:21:29.035Z,3.57
2023-04-12T14:23:57.450Z,4.03
2023-04-12T14:26:27.427Z,3.47
2023-04-12T14:28:55.834Z,3.77
2023-04-12T14:31:25.609Z,3.93
2023-04-12T14:33:56.997Z,4.97
2023-04-12T14:36:27.273Z,4.90
2023-04-12T14:38:55.584Z,5.67
2023-04-12T14:41:24.119Z,4.83
2023-04-12T14:43:53.637Z,5.73
2023-04-12T14:46:25.017Z,4.83
2023-04-12T14:48:53.301Z,6.33
2023-04-12T14:51:21.774Z,4.13
2023-04-12T14:53:50.114Z,4.27
2023-04-12T14:56:23.813Z,3.70
2023-04-12T14:58:56.404Z,3.30
2023-04-12T15:01:25.341Z,3.60
2023-04-12T15:03:57.226Z,4.53
2023-04-12T15:06:27.264Z,3.70
2023-04-12T15:08:55.476Z,3.00
2023-04-12T15:11:29.931Z,3.67
2023-04-12T15:13:59.699Z,5.50
2023-04-12T15:16:28.887Z,8.70
2023-04-12T15:18:59.402Z,8.30
2023-04-12T15:21:29.382Z,6.27
2023-04-12T15:23:58.268Z,10.40
2023-04-12T15:26:26.722Z,7.57
2023-04-12T15:28:54.864Z,9.60
2023-04-12T15:31:24.454Z,6.27
2023-04-12T15:33:55.469Z,8.17
2023-04-12T15:36:33.532Z,6.97
2023-04-12T15:39:02.212Z,9.20
2023-04-12T15:41:39.485Z,8.73
2023-04-12T15:46:22.376Z,9.67
2023-04-12T15:48:51.189Z,11.53
2023-04-12T15:51:19.614Z,7.80
2023-04-12T15:53:47.814Z,10.77
2023-04-12T15:56:19.920Z,9.93
2023-04-12T15:58:48.028Z,11.23
2023-04-12T16:01:16.138Z,10.10
2023-04-12T16:03:48.467Z,8.90
2023-04-12T16:06:20.633Z,13.67
2023-04-12T16:08:49.540Z,15.20
2023-04-12T16:11:18.342Z,9.77
2023-04-12T16:13:48.432Z,9.00
2023-04-12T16:16:18.825Z,12.27
2023-04-12T16:18:48.846Z,10.63
2023-04-12T16:21:20.349Z,9.30
2023-04-12T16:23:49.243Z,9.27
2023-04-12T16:26:22.040Z,12.40
2023-04-12T16:28:50.518Z,10.20
2023-04-12T16:31:20.842Z,11.27
2023-04-12T16:33:54.103Z,8.77
2023-04-12T16:36:23.962Z,9.07
2023-04-12T16:38:54.980Z,9.37
2023-04-12T16:41:23.461Z,9.60
2023-04-12T16:45:04.563Z,8.63
2023-04-12T16:47:32.637Z,10.30
2023-04-12T16:50:00.748Z,8.40
2023-04-12T16:52:28.849Z,7.57
2023-04-12T16:54:57.081Z,10.73
2023-04-12T16:57:25.236Z,10.93
2023-04-12T16:59:53.319Z,9.23
2023-04-12T17:02:23.019Z,10.57
2023-04-12T17:04:51.528Z,8.30
2023-04-12T17:07:19.945Z,10.17
2023-04-12T17:09:48.244Z,8.70
2023-04-12T17:12:17.468Z,10.67
2023-04-12T17:14:45.583Z,10.13
2023-04-12T17:17:13.703Z,11.63
2023-04-12T17:19:44.645Z,10.33
2023-04-12T17:22:14.590Z,14.47
2023-04-12T17:24:43.442Z,10.73
2023-04-12T17:27:11.544Z,11.03
2023-04-12T17:29:39.650Z,11.10
2023-04-12T17:32:08.075Z,13.10
2023-04-12T17:34:36.156Z,14.47
2023-04-12T17:37:06.036Z,11.73
2023-04-12T17:39:37.906Z,12.50
2023-04-12T17:42:06.157Z,11.70
2023-04-12T17:44:36.478Z,14.80
2023-04-12T17:47:04.627Z,13.93
2023-04-12T17:49:32.826Z,13.00
2023-04-12T17:52:01.488Z,14.10
2023-04-12T17:54:33.627Z,13.93
2023-04-12T17:57:06.534Z,11.97
2023-04-12T17:59:34.601Z,12.40
2023-04-12T18:02:05.362Z,10.90
2023-04-12T18:04:36.935Z,13.87
2023-04-12T18:07:12.003Z,12.97
2023-04-12T18:09:44.985Z,13.80
2023-04-12T18:12:15.969Z,15.47
2023-04-12T18:14:45.428Z,12.10
2023-04-12T18:17:13.829Z,15.63
2023-04-12T18:19:47.704Z,15.40
2023-04-12T18:22:18.894Z,15.77
2023-04-12T18:24:53.261Z,15.10
2023-04-12T18:27:21.738Z,15.93
2023-04-12T18:29:57.667Z,14.50
2023-04-12T18:32:26.205Z,15.27
2023-04-12T18:34:58.784Z,18.33
2023-04-12T18:37:30.166Z,15.03
2023-04-12T18:40:07.975Z,16.23
2023-04-12T18:42:38.602Z,17.17
2023-04-12T18:45:16.442Z,16.83
2023-04-12T18:47:50.428Z,15.07
2023-04-12T18:50:20.837Z,16.83
2023-04-12T18:52:52.034Z,17.50
2023-04-12T18:55:25.920Z,15.93
2023-04-12T18:58:04.185Z,21.00
2023-04-12T19:00:35.366Z,20.90
2023-04-12T19:03:22.121Z,19.73
2023-04-12T19:05:58.710Z,19.50
2023-04-12T19:08:27.735Z,23.03
2023-04-12T19:11:03.482Z,22.60
2023-04-12T19:13:33.202Z,25.73
2023-04-12T19:16:10.342Z,22.63
2023-04-12T19:18:42.036Z,21.10
2023-04-12T19:21:10.661Z,26.03
2023-04-12T19:23:44.021Z,24.17
2023-04-12T19:26:22.229Z,23.40
2023-04-12T19:28:59.135Z,25.23
2023-04-12T19:31:35.150Z,25.20
2023-04-12T19:34:05.526Z,24.17
2023-04-12T19:36:38.135Z,24.97
2023-04-12T19:39:14.448Z,27.50
2023-04-12T19:41:52.918Z,26.27
2023-04-12T19:44:27.194Z,24.87
2023-04-12T19:47:05.107Z,23.83
2023-04-12T19:49:35.199Z,24.87
2023-04-12T19:52:13.007Z,25.73
2023-04-12T19:54:41.332Z,27.20
2023-04-12T19:57:12.007Z,27.27
2023-04-12T19:59:45.473Z,26.07
2023-04-12T20:02:26.179Z,25.17
2023-04-12T20:05:06.495Z,25.17
2023-04-12T20:07:40.064Z,26.17
2023-04-12T20:10:10.475Z,22.73
2023-04-12T20:12:46.692Z,23.60
2023-04-12T20:15:16.230Z,24.40
2023-04-12T20:18:04.905Z,24.13
2023-04-12T20:20:45.329Z,26.87
2023-04-12T20:23:23.136Z,26.33
2023-04-12T20:25:53.416Z,23.87
2023-04-12T20:28:25.796Z,26.30
2023-04-12T20:30:54.009Z,22.63
2023-04-12T20:33:25.646Z,24.83
2023-04-12T20:35:54.223Z,26.30
2023-04-12T20:38:23.570Z,23.57
2023-04-12T20:40:54.630Z,23.17
2023-04-12T20:43:33.754Z,27.07
2023-04-12T20:46:04.406Z,23.00
2023-04-12T20:48:38.397Z,23.87
2023-04-12T20:51:08.563Z,24.97
2023-04-12T20:53:36.558Z,25.03
2023-04-12T20:56:06.658Z,23.90
2023-04-12T20:58:37.009Z,25.73
2023-04-12T21:01:06.029Z,26.30
2023-04-12T21:03:36.913Z,24.07
2023-04-12T21:06:05.573Z,24.47
2023-04-12T21:08:33.685Z,24.47
2023-04-12T21:11:02.067Z,25.03
2023-04-12T21:13:31.122Z,26.57
2023-04-12T21:16:01.182Z,25.77
2023-04-12T21:18:32.136Z,29.23
2023-04-12T21:21:00.727Z,30.07
2023-04-12T21:23:29.164Z,28.93
2023-04-12T21:25:57.706Z,28.13
2023-04-12T21:28:26.092Z,29.23
2023-04-12T21:30:56.385Z,28.43
2023-04-12T21:33:26.213Z,28.40
2023-04-12T21:35:57.030Z,26.37
2023-04-12T21:38:25.581Z,25.23
2023-04-12T21:40:57.258Z,24.37
2023-04-12T21:43:25.428Z,24.47
2023-04-12T21:45:54.549Z,22.77
2023-04-12T21:48:23.842Z,21.77
2023-04-12T21:50:53.199Z,24.67
2023-04-12T21:53:21.191Z,20.93
2023-04-12T21:55:50.669Z,23.13
2023-04-12T21:58:18.659Z,22.00
2023-04-12T22:00:47.115Z,22.57
2023-04-12T22:03:15.683Z,23.70
2023-04-12T22:05:51.120Z,21.47
2023-04-12T22:08:26.704Z,21.57
2023-04-12T22:10:55.079Z,20.90
2023-04-12T22:13:24.704Z,22.13
2023-04-12T22:15:53.593Z,23.93
2023-04-12T22:18:23.952Z,22.53
2023-04-12T22:20:52.476Z,22.87
2023-04-12T22:23:22.749Z,22.07
2023-04-12T22:25:58.222Z,23.07
2023-04-12T22:28:26.256Z,21.90
2023-04-12T22:30:56.970Z,23.80
2023-04-12T22:33:25.257Z,20.80
2023-04-12T22:35:53.303Z,21.07
2023-04-12T22:38:21.380Z,23.07
2023-04-12T22:40:49.564Z,22.03
2023-04-12T22:43:20.955Z,22.80
2023-04-12T22:45:49.185Z,21.50
2023-04-12T22:48:17.124Z,21.07
2023-04-12T22:50:45.761Z,22.43
2023-04-12T22:53:16.743Z,24.03
2023-04-12T22:55:44.959Z,24.27
2023-04-12T22:58:12.983Z,22.00
2023-04-12T23:00:42.386Z,22.03
2023-04-12T23:03:11.205Z,22.73
2023-04-12T23:05:44.623Z,23.87
2023-04-12T23:08:14.316Z,23.40
2023-04-12T23:10:43.086Z,26.43
2023-04-12T23:13:11.527Z,25.43
2023-04-12T23:15:40.815Z,25.23
2023-04-12T23:18:10.814Z,26.23
2023-04-12T23:20:40.165Z,26.33
2023-04-12T23:23:08.182Z,26.47
2023-04-12T23:25:39.892Z,26.73
2023-04-12T23:28:12.506Z,29.97
2023-04-12T23:30:43.159Z,28.03
2023-04-12T23:33:13.118Z,28.07
2023-04-12T23:35:41.954Z,27.00
2023-04-12T23:38:10.963Z,26.57
2023-04-12T23:40:38.968Z,27.53
2023-04-12T23:43:08.510Z,26.37
2023-04-12T23:45:36.797Z,26.27
2023-04-12T23:48:05.734Z,28.53
2023-04-12T23:50:37.505Z,25.87
2023-04-12T23:53:05.986Z,28.80
2023-04-12T23:55:34.102Z,26.07
2023-04-12T23:58:03.475Z,24.70
